Agana Heights, GU

12:39 AM ChST on September 18, 2014 (GMT +1000)
Andersen Air Force Base | Change Station
CLOSE
Current Station
Airport
Location: Andersen AFB,
Elevation: 614 ft
Nearby Weather Stations

Elev 614 ft 13.58 °N, 144.93 °E | Updated 41 minutes ago

Scattered Clouds
Scattered Clouds
76 °F
Feels Like 76 °F
N
5
Wind Variable Wind from West

Today
High -- | Low -- °F
--% Chance of Precip.
Yesterday
High -- | Low -- °F
Precip. -- in
6:10 AM 6:20 PM
Waning Crescent, 35% visible
Pressure 29.91 in
Visibility 10.0 miles
Clouds Scattered Clouds 15000 ft
Dew Point 74 °F
Humidity 93%
Rainfall 0.93 in
Snow Depth Not available.
UV 0 out of 12
Pollen Not available.
Air Quality Not available.
Flu Activity Not available.
METAR PGUA 171358Z AUTO 26004KT 10SM SCT150 25/23 A2993 RMK AO2 SLP126 T02460234 402540228 $

More Conditions Fewer Conditions

Pressure 29.91 in
Visibility 10.0 miles
Clouds Scattered Clouds 15000 ft
Dew Point 74 °F
Humidity 93%
Rainfall 0.93 in
Snow Depth Not available.
UV 0 out of 12
Pollen Not available.
Air Quality Not available.
Flu Activity Not available.
METAR PGUA 171358Z AUTO 26004KT 10SM SCT150 25/23 A2993 RMK AO2 SLP126 T02460234 402540228 $

More Conditions Fewer Conditions

10-Day Weather Forecast

Almanac

Astronomy

Sep. 18, 2014 Rise Set
Actual Time 6:10 AM ChST 6:20 PM ChST
Civil Twilight 5:48 AM ChST 6:41 PM ChST
Nautical Twilight 5:24 AM ChST 7:06 PM ChST
Astronomical Twilight 4:59 AM ChST 7:31 PM ChST
Moon 1:08 AM ChST (9/18) 2:06 PM ChST (9/18)
Length of Visible Light 12h 52m
Length of Day
12h 10m
Tomorrow will be 0m 44s shorter.
Waning Crescent, 35% of the Moon is Illuminated
Sep 17
Waning Crescent
Sep 24
New
Oct 1
First Quarter
Oct 8
Full
Oct 15
Last Quarter

Community

WunderPhotos

Upload Photos

1,754,057 photos uploaded!

WunderBlogs® & News

By Dr. Jeff Masters
Director of Meteorology, Weather Underground
By Kari Strenfel
Meteorologist, Weather Underground
By Christopher C. Burt
Weather Historian, Weather Underground
September 17, 2014
September 17, 2014
September 17, 2014

Nearby

Snow Depth

Station Depth Elevation
No new snow has been reported.

Earthquake Activity

City Distance Mag. Time & Date
No recent earthquake activity has been reported nearby.
Minimum magnitude displayed is 2.5.

Coastal Water Temperatures

Place Temperature
No Stations Reporting

Nearby Weather Stations